DAH6101 DAOO-DAAG
Flight info
| Callsign | DAH6101 |
|---|---|
| Flight time | 0h 35m |
| Altitude | 25000 |
| Route | MOS DCT CHE |
| Aircraft | B738/M-SDE2E3FGHIRWXY/LB1 |
Departure
| Time | 2026-04-30 22:12 |
|---|---|
| Airport | Oran Es-Sénia (Ahmed Ben Bella) International Airport (DAOO) |
Arrival
| Time | 2026-04-30 22:48 |
|---|---|
| Airport | Houari Boumediene Airport (DAAG) |
| Time | Latitude | Longitude | Altitude | Speed | Heading |
|---|---|---|---|---|---|
| 2026-04-30 22:02 | 35.61838 | -0.61233 | 309 ft | 0 kts | 122° |
| 2026-04-30 22:03 | 35.61841 | -0.61239 | 309 ft | 2 kts | 122° |
| 2026-04-30 22:03 | 35.61850 | -0.61256 | 309 ft | 2 kts | 122° |
| 2026-04-30 22:04 | 35.61858 | -0.61273 | 309 ft | 2 kts | 122° |
| 2026-04-30 22:04 | 35.61866 | -0.61290 | 309 ft | 2 kts | 106° |
| 2026-04-30 22:04 | 35.61859 | -0.61327 | 308 ft | 2 kts | 32° |
| 2026-04-30 22:05 | 35.61848 | -0.61334 | 308 ft | 0 kts | 24° |
| 2026-04-30 22:08 | 35.61854 | -0.61331 | 308 ft | 2 kts | 22° |
| 2026-04-30 22:08 | 35.61876 | -0.61326 | 309 ft | 5 kts | 3° |
| 2026-04-30 22:08 | 35.61919 | -0.61334 | 308 ft | 8 kts | 341° |
| 2026-04-30 22:08 | 35.61958 | -0.61354 | 309 ft | 10 kts | 338° |
| 2026-04-30 22:09 | 35.62017 | -0.61415 | 307 ft | 13 kts | 287° |
| 2026-04-30 22:09 | 35.61995 | -0.61529 | 308 ft | 15 kts | 247° |
| 2026-04-30 22:09 | 35.61951 | -0.61659 | 308 ft | 18 kts | 247° |
| 2026-04-30 22:09 | 35.61900 | -0.61808 | 309 ft | 20 kts | 247° |
| 2026-04-30 22:10 | 35.61843 | -0.61974 | 308 ft | 22 kts | 247° |
| 2026-04-30 22:10 | 35.61782 | -0.62155 | 308 ft | 24 kts | 247° |
| 2026-04-30 22:10 | 35.61716 | -0.62349 | 309 ft | 25 kts | 247° |
| 2026-04-30 22:10 | 35.61646 | -0.62556 | 309 ft | 27 kts | 247° |
| 2026-04-30 22:11 | 35.61736 | -0.62853 | 309 ft | 20 kts | 346° |
| 2026-04-30 22:11 | 35.61855 | -0.62792 | 308 ft | 19 kts | 61° |
| 2026-04-30 22:11 | 35.61910 | -0.62636 | 309 ft | 33 kts | 67° |
| 2026-04-30 22:12 | 35.62126 | -0.62008 | 310 ft | 126 kts | 67° |
| 2026-04-30 22:12 | 35.62577 | -0.60768 | 571 ft | 182 kts | 64° |
| 2026-04-30 22:12 | 35.63207 | -0.59235 | 1085 ft | 222 kts | 63° |
| 2026-04-30 22:12 | 35.64187 | -0.57770 | 2070 ft | 220 kts | 30° |
| 2026-04-30 22:13 | 35.65646 | -0.57305 | 3033 ft | 222 kts | 5° |
| 2026-04-30 22:13 | 35.67136 | -0.56631 | 3519 ft | 241 kts | 39° |
| 2026-04-30 22:13 | 35.68064 | -0.54831 | 3971 ft | 263 kts | 78° |
| 2026-04-30 22:13 | 35.68184 | -0.52570 | 4931 ft | 267 kts | 89° |
| 2026-04-30 22:14 | 35.68235 | -0.50271 | 5910 ft | 271 kts | 86° |
| 2026-04-30 22:14 | 35.68488 | -0.47956 | 6867 ft | 275 kts | 79° |
| 2026-04-30 22:14 | 35.68929 | -0.45652 | 7805 ft | 279 kts | 74° |
| 2026-04-30 22:14 | 35.69502 | -0.43355 | 8727 ft | 283 kts | 71° |
| 2026-04-30 22:15 | 35.70167 | -0.41054 | 9635 ft | 287 kts | 69° |
| 2026-04-30 22:15 | 35.70896 | -0.38750 | 10464 ft | 294 kts | 68° |
| 2026-04-30 22:15 | 35.71709 | -0.36315 | 10737 ft | 322 kts | 67° |
| 2026-04-30 22:15 | 35.72623 | -0.33681 | 10936 ft | 348 kts | 66° |
| 2026-04-30 22:16 | 35.73617 | -0.30885 | 11402 ft | 363 kts | 66° |
| 2026-04-30 22:16 | 35.74653 | -0.28015 | 12174 ft | 368 kts | 66° |
| 2026-04-30 22:17 | 35.77850 | -0.19285 | 14507 ft | 379 kts | 65° |
| 2026-04-30 22:17 | 35.78942 | -0.16310 | 15237 ft | 383 kts | 65° |
| 2026-04-30 22:17 | 35.81155 | -0.10270 | 16643 ft | 391 kts | 65° |
| 2026-04-30 22:18 | 35.82278 | -0.07200 | 17304 ft | 395 kts | 65° |
| 2026-04-30 22:18 | 35.84560 | -0.00951 | 17990 ft | 409 kts | 65° |
| 2026-04-30 22:19 | 35.86971 | 0.05672 | 18011 ft | 435 kts | 66° |
| 2026-04-30 22:19 | 35.88217 | 0.09096 | 18010 ft | 438 kts | 66° |
| 2026-04-30 22:19 | 35.90687 | 0.15908 | 17994 ft | 433 kts | 66° |
| 2026-04-30 22:20 | 35.91893 | 0.19303 | 17995 ft | 432 kts | 66° |
| 2026-04-30 22:20 | 35.94279 | 0.26098 | 18006 ft | 432 kts | 66° |
| 2026-04-30 22:20 | 35.95472 | 0.29507 | 18005 ft | 433 kts | 66° |
| 2026-04-30 22:21 | 35.96669 | 0.32926 | 18005 ft | 434 kts | 66° |
| 2026-04-30 22:21 | 35.97867 | 0.36351 | 18001 ft | 435 kts | 66° |
| 2026-04-30 22:21 | 35.99069 | 0.39783 | 18004 ft | 435 kts | 66° |
| 2026-04-30 22:21 | 36.00269 | 0.43211 | 18006 ft | 435 kts | 66° |
| 2026-04-30 22:22 | 36.01470 | 0.46645 | 18000 ft | 435 kts | 66° |
| 2026-04-30 22:22 | 36.02669 | 0.50076 | 18002 ft | 435 kts | 66° |
| 2026-04-30 22:22 | 36.03868 | 0.53513 | 18005 ft | 435 kts | 66° |
| 2026-04-30 22:22 | 36.05067 | 0.56951 | 17996 ft | 436 kts | 66° |
| 2026-04-30 22:23 | 36.06263 | 0.60385 | 18003 ft | 435 kts | 66° |
| 2026-04-30 22:23 | 36.07459 | 0.63825 | 18003 ft | 436 kts | 66° |
| 2026-04-30 22:23 | 36.08654 | 0.67263 | 18002 ft | 435 kts | 66° |
| 2026-04-30 22:23 | 36.09848 | 0.70705 | 17998 ft | 435 kts | 66° |
| 2026-04-30 22:24 | 36.11041 | 0.74146 | 17994 ft | 435 kts | 66° |
| 2026-04-30 22:24 | 36.12233 | 0.77588 | 18002 ft | 435 kts | 66° |
| 2026-04-30 22:24 | 36.13422 | 0.81029 | 18000 ft | 436 kts | 66° |
| 2026-04-30 22:24 | 36.14597 | 0.84430 | 17997 ft | 436 kts | 66° |
| 2026-04-30 22:25 | 36.15787 | 0.87877 | 18003 ft | 436 kts | 67° |
| 2026-04-30 22:25 | 36.16974 | 0.91324 | 18004 ft | 436 kts | 67° |
| 2026-04-30 22:25 | 36.18164 | 0.94778 | 18002 ft | 436 kts | 67° |
| 2026-04-30 22:25 | 36.19353 | 0.98237 | 17999 ft | 436 kts | 67° |
| 2026-04-30 22:26 | 36.21726 | 1.05150 | 18002 ft | 436 kts | 67° |
| 2026-04-30 22:26 | 36.22909 | 1.08603 | 18000 ft | 435 kts | 67° |
| 2026-04-30 22:26 | 36.24092 | 1.12056 | 17999 ft | 435 kts | 67° |
| 2026-04-30 22:27 | 36.25272 | 1.15508 | 17997 ft | 435 kts | 67° |
| 2026-04-30 22:27 | 36.26450 | 1.18955 | 18001 ft | 435 kts | 67° |
| 2026-04-30 22:27 | 36.28805 | 1.25864 | 18008 ft | 435 kts | 67° |
| 2026-04-30 22:28 | 36.31156 | 1.32776 | 17998 ft | 436 kts | 67° |
| 2026-04-30 22:28 | 36.32331 | 1.36237 | 18008 ft | 436 kts | 67° |
| 2026-04-30 22:29 | 36.35858 | 1.46647 | 18007 ft | 437 kts | 67° |
| 2026-04-30 22:29 | 36.37031 | 1.50117 | 17998 ft | 437 kts | 67° |
| 2026-04-30 22:30 | 36.41711 | 1.64003 | 18001 ft | 435 kts | 67° |
| 2026-04-30 22:31 | 36.45038 | 1.73904 | 17993 ft | 400 kts | 67° |
| 2026-04-30 22:32 | 36.48261 | 1.83541 | 17155 ft | 401 kts | 67° |
| 2026-04-30 22:32 | 36.50369 | 1.89864 | 16027 ft | 391 kts | 67° |
| 2026-04-30 22:33 | 36.53430 | 1.99062 | 14314 ft | 379 kts | 67° |
| 2026-04-30 22:33 | 36.55423 | 2.05066 | 13193 ft | 372 kts | 67° |
| 2026-04-30 22:34 | 36.58340 | 2.13872 | 11526 ft | 362 kts | 68° |
| 2026-04-30 22:35 | 36.60192 | 2.19589 | 10832 ft | 345 kts | 70° |
| 2026-04-30 22:36 | 36.62053 | 2.30442 | 10252 ft | 300 kts | 81° |
| 2026-04-30 22:36 | 36.62367 | 2.32966 | 10126 ft | 290 kts | 81° |
| 2026-04-30 22:37 | 36.63359 | 2.40165 | 9449 ft | 277 kts | 79° |
| 2026-04-30 22:37 | 36.63702 | 2.42516 | 9163 ft | 275 kts | 79° |
| 2026-04-30 22:37 | 36.64396 | 2.47184 | 8563 ft | 273 kts | 79° |
| 2026-04-30 22:38 | 36.65089 | 2.51803 | 8003 ft | 270 kts | 79° |
| 2026-04-30 22:38 | 36.65777 | 2.56383 | 7422 ft | 268 kts | 79° |
| 2026-04-30 22:39 | 36.66119 | 2.58660 | 7134 ft | 267 kts | 79° |
| 2026-04-30 22:39 | 36.67133 | 2.65429 | 6271 ft | 264 kts | 79° |
| 2026-04-30 22:40 | 36.68127 | 2.72085 | 5615 ft | 253 kts | 79° |
| 2026-04-30 22:41 | 36.69046 | 2.78263 | 5267 ft | 231 kts | 79° |
| 2026-04-30 22:41 | 36.69611 | 2.82074 | 4997 ft | 220 kts | 79° |
| 2026-04-30 22:42 | 36.69838 | 2.89618 | 4107 ft | 219 kts | 92° |
| 2026-04-30 22:43 | 36.69852 | 2.93385 | 3744 ft | 215 kts | 89° |
| 2026-04-30 22:43 | 36.69783 | 2.97101 | 3162 ft | 211 kts | 92° |
| 2026-04-30 22:44 | 36.69675 | 3.00654 | 2638 ft | 199 kts | 92° |
| 2026-04-30 22:45 | 36.69505 | 3.06692 | 1710 ft | 142 kts | 92° |
| 2026-04-30 22:45 | 36.69438 | 3.09099 | 1328 ft | 139 kts | 92° |
| 2026-04-30 22:46 | 36.69371 | 3.11494 | 964 ft | 138 kts | 92° |
| 2026-04-30 22:47 | 36.69242 | 3.16242 | 238 ft | 136 kts | 92° |
| 2026-04-30 22:47 | 36.69183 | 3.18415 | 75 ft | 100 kts | 92° |
| 2026-04-30 22:48 | 36.69179 | 3.19771 | 68 ft | 43 kts | 75° |
| 2026-04-30 22:49 | 36.69314 | 3.20281 | 63 ft | 10 kts | 51° |
| 2026-04-30 22:49 | 36.69396 | 3.20305 | 69 ft | 11 kts | 13° |
| 2026-04-30 22:50 | 36.69592 | 3.20387 | 66 ft | 19 kts | 40° |
| 2026-04-30 22:51 | 36.69647 | 3.20467 | 63 ft | 10 kts | 21° |
| 2026-04-30 22:51 | 36.69715 | 3.20509 | 69 ft | 0 kts | 34° |